CDT,Max TemperatureF,Mean TemperatureF,Min TemperatureF,Max Dew PointF,MeanDew PointF,Min DewpointF,Max Humidity, Mean Humidity, Min Humidity, Max Sea Level PressureIn, Mean Sea Level PressureIn, Min Sea Level PressureIn, Max VisibilityMiles, Mean VisibilityMiles, Min VisibilityMiles, Max Wind SpeedMPH, Mean Wind SpeedMPH, Max Gust SpeedMPH,PrecipitationIn, CloudCover, Events, WindDirDegrees
2012-10-1,69,56,44,50,46,43,93,74,38,29.93,29.88,29.82,10,10,10,6,2,,0.00,0,,121
2012-10-2,71,58,46,52,48,45,100,74,41,29.94,29.89,29.85,10,10,7,10,1,,0.00,0,,106
2012-10-3,75,58,42,50,46,41,100,70,34,29.98,29.94,29.89,10,8,0,8,3,,0.00,1,Fog,98
2012-10-4,60,52,44,50,40,30,82,60,36,30.17,30.03,29.92,10,10,10,23,8,30,0.00,2,Rain,275
2012-10-5,50,42,35,30,25,16,81,54,26,30.19,30.14,30.08,10,10,10,17,9,26,0.00,0,,266
2012-10-6,44,40,35,28,26,23,70,56,46,30.23,30.19,30.11,10,10,10,22,11,25,0.00,8,,297
2012-10-7,51,42,32,30,22,14,87,51,22,30.23,30.15,30.06,10,10,10,13,4,20,0.00,3,,267
2012-10-8,64,48,33,34,28,21,65,44,28,30.05,29.92,29.80,10,10,10,21,6,32,0.00,2,,172
2012-10-9,55,47,39,46,37,32,93,66,41,29.96,29.85,29.79,10,10,5,15,8,22,0.29,6,Rain,230
2012-10-10,51,42,32,32,27,23,81,60,35,30.14,30.08,29.96,10,10,10,17,7,25,0.00,2,,272
2012-10-11,59,50,42,43,32,19,81,53,36,30.34,30.10,29.98,10,10,10,17,4,20,0.02,4,Rain,268
2012-10-12,53,40,26,34,23,14,93,54,21,30.47,30.36,30.15,10,10,10,13,3,16,0.00,1,Rain,106
2012-10-13,64,53,42,61,52,37,94,87,76,30.14,29.85,29.68,10,8,4,12,6,17,0.50,8,Rain,138
2012-10-14,64,52,41,63,51,37,100,91,76,29.86,29.66,29.51,10,8,2,18,5,33,1.36,6,Rain,317
2012-10-15,60,46,33,43,38,32,100,77,42,29.97,29.91,29.86,10,10,5,9,2,,0.00,0,,242
2012-10-16,69,56,42,50,46,41,93,69,46,29.88,29.60,29.42,10,10,4,15,5,22,0.00,0,,113
2012-10-17,64,57,48,54,48,41,94,77,62,29.43,29.36,29.31,10,10,7,14,4,20,0.07,4,Rain,202
2012-10-18,48,45,42,43,40,37,93,82,66,29.36,29.30,29.27,10,9,2,15,8,21,0.10,8,Rain,221
2012-10-19,51,44,37,43,41,36,100,85,58,29.71,29.55,29.38,10,9,2,10,4,18,0.02,6,Rain,313
2012-10-20,55,44,32,39,36,30,100,81,51,29.91,29.81,29.71,10,8,4,8,1,,0.00,0,,240
2012-10-21,69,54,39,48,44,37,93,71,43,29.94,29.89,29.85,10,10,7,15,5,20,0.00,0,,110
2012-10-22,62,56,50,59,54,46,100,91,82,29.91,29.88,29.84,10,8,3,10,3,,0.02,7,Rain,98
2012-10-23,73,66,59,63,60,57,100,83,65,29.87,29.81,29.75,10,7,2,14,5,18,0.01,7,Rain,118
2012-10-24,77,70,62,64,63,61,94,80,65,29.84,29.77,29.67,10,9,5,12,6,,0.00,6,,116
2012-10-25,73,56,39,63,47,28,94,76,65,30.16,29.78,29.56,10,9,2,22,12,33,0.18,6,Rain,257
2012-10-26,44,38,30,28,26,23,80,61,46,30.39,30.32,30.17,10,10,10,16,10,23,0.00,2,,291
2012-10-27,42,35,28,30,23,16,93,63,34,30.40,30.34,30.30,10,10,10,9,2,16,0.00,2,,329
2012-10-28,48,36,24,28,22,16,93,65,29,30.39,30.34,30.29,10,10,5,8,1,,0.00,0,,111
2012-10-29,50,36,23,30,23,19,93,67,32,30.38,30.31,30.20,10,10,5,6,2,,0.00,1,,84
2012-10-30,50,39,28,28,24,19,87,58,32,30.21,30.05,29.96,10,10,10,17,5,24,0.00,0,,323
2012-10-31,50,39,28,25,20,12,80,53,22,29.98,29.95,29.90,10,10,10,16,6,20,0.00,0,,309